Airfield :
LOGIN :

Register | Disclaimer

   EN    FR    IT 

 










Legend :    VFR   Marginal VFR   IFR   Intensive IFR   Very Intensive IFR
Visi :
Ceiling :
>= 8 km
>= 3000ft
5 to 8 km
1000 to 3000 ft
1500m to 5 km
500 to 1000 ft
800 to 1500m
200 to 500 ft
< 800m
< 200 ft
Symbols :   Thunderstorms  Fog  Heavy snow  Heavy precipitations  Wind > 20 kt
SIGMETs :     Misc.  Thunderstorms  Icing  Turbulence  Mountain Waves  Volcanic Ashes






- Airport Elevation : 97 ft
- IATA code : EBJ


EKEB - Esbjerg

CURRENT METAR :
  • 190720Z AUTO 08006KT 9999 OVC031/// 12/09 Q1021

EXPIRED METARs :
  • 190650Z AUTO 08005KT 9999 OVC028/// 12/09 Q1021
  • 190620Z AUTO 09004KT 9999 OVC025/// 12/09 Q1021
  • 190550Z AUTO 08006KT 9999 OVC024/// 11/09 Q1021
  • 190520Z AUTO 08008KT 9999 OVC027/// 11/09 Q1021
  • 190450Z AUTO 08006KT 9999 OVC033/// 11/09 Q1021

TAF TAF EKEB
Valid from the 19 at 06:00 until the 19 at 15:00 UTC


190504Z 1906/1915 09010KT 9999 BKN040



MET'MAP, your aeronautical weather chart ! - Copyright ORBIFLY December 2007 - Disclaimer

ORBIFLY MET'MAP TEAM :

Programming & Development : Alexandra Zaïnal
Concept & original design : Baudouin d'Aumeries
Assistance for programming : Marc-Olivier Méhu
Technical & hardware support : Manuel Goepfert

Contact : metmap@orbifly.com




SOURCES & CREDITS :

   NOAA